createdAt,value
2023-04-27T04:02:17.127Z,3.10
2023-04-27T04:05:40.682Z,3.00
2023-04-27T04:08:57.717Z,3.00
2023-04-27T04:12:05.940Z,3.00
2023-04-27T04:22:09.433Z,2.90
2023-04-27T04:25:23.482Z,2.90
2023-04-27T04:28:29.079Z,2.80
2023-04-27T04:37:56.126Z,2.80
2023-04-27T04:40:24.853Z,2.80
2023-04-27T04:42:58.026Z,2.80
2023-04-27T04:50:06.569Z,2.50
2023-04-27T04:57:52.609Z,2.20
2023-04-27T05:25:04.192Z,2.60
2023-04-27T05:28:58.021Z,2.80
2023-04-27T05:36:00.688Z,2.80
2023-04-27T06:12:52.270Z,2.90
2023-04-27T06:25:01.500Z,3.50
2023-04-27T06:27:29.905Z,3.50
2023-04-27T06:29:58.290Z,3.50
2023-04-27T06:32:26.882Z,3.60
2023-04-27T06:34:56.625Z,3.70
2023-04-27T06:37:24.922Z,3.80
2023-04-27T06:39:53.331Z,4.30
2023-04-27T06:42:21.952Z,4.50
2023-04-27T06:44:50.527Z,4.70
2023-04-27T06:47:18.838Z,4.80
2023-04-27T06:49:49.612Z,4.80
2023-04-27T06:52:20.005Z,4.90
2023-04-27T06:54:48.556Z,5.00
2023-04-27T06:57:16.890Z,5.10
2023-04-27T06:59:45.557Z,5.10
2023-04-27T07:02:14.286Z,5.20
2023-04-27T07:04:43.590Z,5.30
2023-04-27T07:07:12.267Z,5.40
2023-04-27T07:09:42.111Z,5.50
2023-04-27T07:12:10.893Z,5.60
2023-04-27T07:14:39.290Z,5.70
2023-04-27T07:17:07.526Z,5.80
2023-04-27T07:19:36.016Z,5.80
2023-04-27T07:22:04.664Z,5.90
2023-04-27T07:24:33.268Z,5.90
2023-04-27T07:27:04.096Z,6.00
2023-04-27T07:29:32.734Z,6.10
2023-04-27T07:32:01.415Z,6.20
2023-04-27T07:34:41.133Z,6.30
2023-04-27T07:37:14.121Z,6.30
2023-04-27T07:39:42.512Z,6.40
2023-04-27T07:42:12.688Z,6.50
2023-04-27T07:44:42.777Z,6.60
2023-04-27T07:47:11.239Z,6.60
2023-04-27T07:49:40.420Z,6.60
2023-04-27T07:52:09.157Z,6.80
2023-04-27T07:54:37.492Z,6.80
2023-04-27T07:57:11.705Z,6.90
2023-04-27T07:59:40.703Z,7.00
2023-04-27T08:02:19.301Z,7.30
2023-04-27T08:04:49.532Z,7.70
2023-04-27T08:07:18.706Z,7.60
2023-04-27T08:09:47.822Z,7.60
2023-04-27T08:12:17.971Z,7.60
2023-04-27T08:14:46.404Z,7.70
2023-04-27T08:17:14.525Z,7.90
2023-04-27T08:19:43.092Z,7.90
2023-04-27T08:22:11.535Z,7.90
2023-04-27T08:24:40.231Z,8.10
2023-04-27T08:27:09.304Z,8.20
2023-04-27T08:29:39.570Z,8.30
2023-04-27T08:32:08.446Z,8.30
2023-04-27T08:34:36.980Z,8.40
2023-04-27T08:37:05.522Z,8.30
2023-04-27T08:39:33.918Z,8.50
2023-04-27T08:42:02.317Z,8.70
2023-04-27T08:44:31.343Z,8.90
2023-04-27T08:47:01.131Z,8.80
2023-04-27T08:49:29.521Z,8.80
2023-04-27T08:51:59.237Z,9.00
2023-04-27T08:54:27.725Z,9.00
2023-04-27T08:56:55.991Z,9.30
2023-04-27T08:59:24.131Z,9.40
2023-04-27T09:01:52.503Z,9.50
2023-04-27T09:04:22.680Z,9.70
2023-04-27T09:06:51.543Z,10.00
2023-04-27T09:09:26.417Z,10.00
2023-04-27T09:11:54.527Z,10.20
2023-04-27T09:14:24.804Z,10.20
2023-04-27T09:16:57.729Z,10.10
2023-04-27T09:19:28.820Z,10.10
2023-04-27T09:22:08.499Z,10.00
2023-04-27T09:27:22.190Z,10.20
2023-04-27T09:29:50.341Z,10.30
2023-04-27T09:32:20.875Z,10.30
2023-04-27T09:34:50.721Z,10.50
2023-04-27T09:37:19.058Z,10.50
2023-04-27T09:39:48.452Z,10.60
2023-04-27T09:42:17.230Z,10.90
2023-04-27T09:44:45.407Z,11.10
2023-04-27T09:47:15.301Z,10.90
2023-04-27T09:49:43.538Z,10.90
2023-04-27T09:52:13.598Z,11.10
2023-04-27T09:54:42.330Z,11.10
2023-04-27T09:57:17.789Z,11.00
2023-04-27T09:59:58.514Z,11.00
2023-04-27T10:02:29.752Z,11.30
2023-04-27T10:05:21.606Z,12.00
2023-04-27T10:07:51.383Z,12.30
2023-04-27T10:10:20.526Z,12.00
2023-04-27T10:12:58.805Z,11.70
2023-04-27T10:15:29.780Z,11.70
2023-04-27T10:17:59.918Z,11.70
2023-04-27T10:20:32.559Z,11.60
2023-04-27T10:23:02.520Z,11.70
2023-04-27T10:25:34.786Z,11.60
2023-04-27T10:28:04.430Z,11.80
2023-04-27T10:30:34.694Z,11.80
2023-04-27T10:33:07.264Z,12.00
2023-04-27T10:35:36.423Z,12.00
2023-04-27T10:38:10.093Z,11.60
2023-04-27T10:40:38.631Z,11.60
2023-04-27T10:43:11.098Z,12.00
2023-04-27T10:45:39.681Z,12.70
2023-04-27T10:48:08.381Z,12.20
2023-04-27T10:50:37.216Z,12.20
2023-04-27T10:53:08.826Z,12.60
2023-04-27T10:55:37.663Z,13.10
2023-04-27T10:58:06.385Z,13.00
2023-04-27T11:00:37.736Z,13.20
2023-04-27T11:03:14.938Z,12.90
2023-04-27T11:05:44.117Z,12.90
2023-04-27T11:08:15.495Z,12.80
2023-04-27T11:10:46.232Z,12.80
2023-04-27T11:13:16.727Z,12.50
2023-04-27T11:15:49.273Z,12.70
2023-04-27T11:18:18.718Z,12.80
2023-04-27T11:20:49.782Z,13.10
2023-04-27T11:23:26.754Z,13.80
2023-04-27T11:25:56.609Z,14.40
2023-04-27T11:28:26.193Z,14.30
2023-04-27T11:30:57.952Z,14.00
2023-04-27T11:33:26.508Z,13.30
2023-04-27T11:35:54.882Z,13.30
2023-04-27T11:38:23.468Z,13.40
2023-04-27T11:41:08.690Z,13.60
2023-04-27T11:43:37.915Z,13.70
2023-04-27T11:46:08.584Z,14.50
2023-04-27T11:48:38.178Z,14.70
2023-04-27T11:51:06.907Z,14.40
2023-04-27T11:53:36.744Z,13.90
2023-04-27T11:56:08.008Z,13.50
2023-04-27T11:58:37.464Z,13.50
2023-04-27T12:01:06.181Z,13.90
2023-04-27T12:03:35.619Z,14.20
2023-04-27T12:06:21.613Z,14.60
2023-04-27T12:08:52.582Z,14.90
2023-04-27T12:11:22.145Z,14.90
2023-04-27T12:13:50.784Z,14.60
2023-04-27T12:16:19.230Z,14.30
2023-04-27T12:18:47.368Z,14.10
2023-04-27T12:21:15.739Z,14.30
2023-04-27T12:23:44.125Z,14.20
2023-04-27T12:26:15.039Z,14.20
2023-04-27T12:28:45.170Z,14.10
2023-04-27T12:31:16.877Z,14.10
2023-04-27T12:33:45.169Z,14.40
2023-04-27T12:36:13.627Z,14.50
2023-04-27T12:38:42.002Z,14.60
2023-04-27T12:41:10.648Z,14.60
2023-04-27T12:43:41.201Z,15.30
2023-04-27T12:46:11.551Z,15.20
2023-04-27T12:48:40.212Z,14.60
2023-04-27T12:51:09.077Z,14.40
2023-04-27T12:53:37.978Z,14.60
2023-04-27T12:56:07.383Z,14.90
2023-04-27T12:58:36.015Z,15.50
2023-04-27T13:01:04.066Z,15.10
2023-04-27T13:03:34.528Z,15.20
2023-04-27T13:06:02.817Z,15.30
2023-04-27T13:08:31.132Z,15.30
2023-04-27T13:10:59.311Z,15.30
2023-04-27T13:13:27.648Z,15.20
2023-04-27T13:15:56.527Z,15.60
2023-04-27T13:18:24.919Z,15.50
2023-04-27T13:20:54.666Z,15.70
2023-04-27T13:23:22.964Z,15.70
2023-04-27T13:25:51.354Z,15.70
2023-04-27T13:28:19.918Z,15.50
2023-04-27T13:30:48.991Z,15.80
2023-04-27T13:33:23.134Z,15.50
2023-04-27T13:35:52.093Z,15.70
2023-04-27T13:38:21.719Z,15.60
2023-04-27T13:40:50.029Z,15.80
2023-04-27T13:43:20.509Z,15.60
2023-04-27T13:45:49.649Z,15.50
2023-04-27T13:48:18.027Z,15.80
2023-04-27T13:50:46.829Z,16.00
2023-04-27T13:53:16.802Z,16.00
2023-04-27T13:55:46.791Z,16.30
2023-04-27T13:58:16.154Z,16.10
2023-04-27T14:00:44.804Z,15.90
2023-04-27T14:03:13.355Z,16.00
2023-04-27T14:05:41.718Z,16.00
2023-04-27T14:08:09.971Z,16.20
2023-04-27T14:10:38.352Z,16.00
2023-04-27T14:13:08.816Z,15.90
2023-04-27T14:15:37.594Z,16.00
2023-04-27T14:18:07.995Z,16.10
2023-04-27T14:20:36.772Z,16.10
2023-04-27T14:23:06.250Z,16.10
2023-04-27T14:25:35.261Z,16.20
2023-04-27T14:28:04.115Z,16.30
2023-04-27T14:30:35.005Z,16.00
2023-04-27T14:33:03.767Z,16.10
2023-04-27T14:35:32.186Z,16.30
2023-04-27T14:38:02.583Z,16.20
2023-04-27T14:40:31.514Z,16.50
2023-04-27T14:43:00.533Z,16.10
2023-04-27T14:45:33.836Z,15.80
2023-04-27T14:48:07.497Z,16.00
2023-04-27T14:50:36.533Z,16.10
2023-04-27T14:53:05.209Z,16.20
2023-04-27T14:55:33.607Z,16.20
2023-04-27T14:58:01.943Z,16.20
2023-04-27T15:00:30.215Z,16.40
2023-04-27T15:02:58.730Z,16.00
2023-04-27T15:05:28.934Z,16.00
2023-04-27T15:07:57.450Z,16.10
2023-04-27T15:10:25.912Z,16.20
2023-04-27T15:12:55.002Z,15.90
2023-04-27T15:15:23.582Z,15.70
2023-04-27T15:17:51.895Z,15.30
2023-04-27T15:20:20.643Z,15.20
2023-04-27T15:22:50.662Z,15.40
2023-04-27T15:25:19.297Z,15.60
2023-04-27T15:27:47.717Z,15.70
2023-04-27T15:30:16.565Z,15.80
2023-04-27T15:32:45.257Z,15.80
2023-04-27T15:35:16.338Z,15.50
2023-04-27T15:37:45.078Z,15.40
2023-04-27T15:40:15.776Z,15.50
2023-04-27T15:42:44.320Z,15.60
2023-04-27T15:45:12.922Z,15.50
2023-04-27T15:47:41.469Z,15.30
2023-04-27T15:50:09.978Z,15.30
2023-04-27T15:52:38.340Z,15.00
2023-04-27T15:55:07.342Z,15.00
2023-04-27T15:57:37.340Z,14.90
2023-04-27T16:00:10.164Z,14.90
2023-04-27T16:02:39.058Z,14.90
2023-04-27T16:05:08.402Z,14.80
2023-04-27T16:07:38.274Z,14.90
2023-04-27T16:10:08.205Z,14.90
2023-04-27T16:12:37.840Z,14.80
2023-04-27T16:15:10.077Z,14.90
2023-04-27T16:17:39.831Z,14.90
2023-04-27T16:20:09.802Z,14.80
2023-04-27T16:22:38.776Z,14.80
2023-04-27T16:25:10.641Z,14.80
2023-04-27T16:27:41.065Z,14.90
2023-04-27T16:30:10.483Z,14.80
2023-04-27T16:32:39.483Z,14.70
2023-04-27T16:35:09.141Z,14.70
2023-04-27T16:37:39.199Z,14.50
2023-04-27T16:40:09.327Z,14.60
2023-04-27T16:42:37.814Z,14.70
2023-04-27T16:45:10.961Z,14.50
2023-04-27T16:47:39.518Z,14.30
2023-04-27T16:50:08.653Z,14.30
2023-04-27T16:52:37.072Z,14.30
2023-04-27T16:55:06.780Z,14.20
2023-04-27T16:57:35.727Z,14.30
2023-04-27T17:00:06.178Z,14.10
2023-04-27T17:02:36.194Z,14.00
2023-04-27T17:05:04.865Z,13.90
2023-04-27T17:07:33.443Z,13.70
2023-04-27T17:10:02.026Z,13.60
2023-04-27T17:12:30.616Z,13.60
2023-04-27T17:14:58.975Z,13.50
2023-04-27T17:17:27.433Z,13.40
2023-04-27T17:19:59.600Z,13.50
2023-04-27T17:22:28.488Z,13.40
2023-04-27T17:24:56.896Z,13.40
2023-04-27T17:27:24.977Z,13.40
2023-04-27T17:29:57.711Z,13.30
2023-04-27T17:32:26.722Z,13.30
2023-04-27T17:34:55.248Z,13.30
2023-04-27T17:37:25.377Z,13.30
2023-04-27T17:39:54.870Z,13.20
2023-04-27T17:42:23.583Z,13.10
2023-04-27T17:44:52.137Z,13.00
2023-04-27T17:47:28.001Z,12.90
2023-04-27T17:49:56.487Z,12.70
2023-04-27T17:52:26.718Z,12.60
2023-04-27T17:54:55.755Z,12.60
2023-04-27T17:57:24.405Z,12.50
2023-04-27T17:59:52.924Z,12.50
2023-04-27T18:02:22.028Z,12.50
2023-04-27T18:04:50.628Z,12.40
2023-04-27T18:07:20.261Z,12.40
2023-04-27T18:09:50.497Z,12.50
2023-04-27T18:12:19.166Z,12.40
2023-04-27T18:14:51.127Z,12.30
2023-04-27T18:17:19.439Z,12.20
2023-04-27T18:19:53.245Z,12.10
2023-04-27T18:22:33.896Z,12.20
2023-04-27T18:25:03.851Z,12.20
2023-04-27T18:27:33.074Z,12.00
2023-04-27T18:30:01.817Z,11.90
2023-04-27T18:32:30.422Z,11.90
2023-04-27T18:34:58.831Z,11.80
2023-04-27T18:37:27.252Z,11.80
2023-04-27T18:39:55.842Z,11.80
2023-04-27T18:42:26.156Z,11.70
2023-04-27T18:44:58.124Z,11.70
2023-04-27T18:47:27.538Z,11.70
2023-04-27T18:49:56.181Z,11.70
2023-04-27T18:52:24.978Z,11.60
2023-04-27T18:54:54.896Z,11.60
2023-04-27T18:57:23.779Z,11.60
2023-04-27T18:59:54.728Z,11.60
2023-04-27T19:02:22.985Z,11.50
2023-04-27T19:05:01.699Z,11.50
2023-04-27T19:07:39.131Z,11.40
2023-04-27T19:10:09.120Z,11.40
2023-04-27T19:12:37.648Z,11.40
2023-04-27T19:15:08.192Z,11.40
2023-04-27T19:17:36.599Z,11.40
2023-04-27T19:20:05.578Z,11.30
2023-04-27T19:22:35.054Z,11.30
2023-04-27T19:25:03.353Z,11.40
2023-04-27T19:27:31.748Z,11.50
2023-04-27T19:30:01.056Z,11.30
2023-04-27T19:32:31.407Z,11.30
2023-04-27T19:35:00.292Z,11.20
2023-04-27T19:37:29.079Z,11.20
2023-04-27T19:39:57.768Z,11.10
2023-04-27T19:42:26.366Z,11.20
2023-04-27T19:44:55.760Z,11.20
2023-04-27T19:47:25.696Z,11.10
2023-04-27T19:49:58.480Z,11.00
2023-04-27T19:52:27.421Z,11.00
2023-04-27T19:54:56.307Z,11.00
2023-04-27T19:57:24.440Z,11.00
2023-04-27T19:59:52.943Z,11.00
2023-04-27T20:02:21.729Z,11.00
2023-04-27T20:04:50.714Z,10.90
2023-04-27T20:07:20.924Z,10.90
2023-04-27T20:09:49.403Z,10.90
2023-04-27T20:12:40.241Z,10.90
2023-04-27T20:15:09.832Z,10.90
2023-04-27T20:17:38.746Z,10.90
2023-04-27T20:20:10.443Z,11.00
2023-04-27T20:22:40.950Z,11.00
2023-04-27T20:25:10.012Z,10.90
2023-04-27T20:27:38.494Z,10.90
2023-04-27T20:30:08.257Z,10.80
2023-04-27T20:32:36.517Z,10.80
2023-04-27T20:35:05.789Z,10.80
2023-04-27T20:37:34.625Z,10.70
2023-04-27T20:40:07.764Z,10.70
2023-04-27T20:42:36.520Z,10.70
2023-04-27T20:45:05.877Z,10.70
2023-04-27T20:47:34.301Z,10.70
2023-04-27T20:50:02.881Z,10.60
2023-04-27T20:52:34.417Z,10.70
2023-04-27T20:55:04.757Z,10.70
2023-04-27T20:57:33.093Z,10.60
2023-04-27T21:00:01.288Z,10.60
2023-04-27T21:02:29.806Z,10.50
2023-04-27T21:04:58.340Z,10.50
2023-04-27T21:07:27.056Z,10.40
2023-04-27T21:09:55.870Z,10.40
2023-04-27T21:12:25.495Z,10.40
2023-04-27T21:14:55.100Z,10.30
2023-04-27T21:17:23.605Z,10.40
2023-04-27T21:19:52.202Z,10.20
2023-04-27T21:22:20.764Z,10.20
2023-04-27T21:24:49.007Z,10.20
2023-04-27T21:27:17.324Z,10.20
2023-04-27T21:29:47.109Z,10.20
2023-04-27T21:32:15.788Z,10.20
2023-04-27T21:34:44.227Z,10.20
2023-04-27T21:37:12.873Z,10.20
2023-04-27T21:39:41.968Z,10.10
2023-04-27T21:42:10.708Z,10.10
2023-04-27T21:44:39.034Z,10.00
2023-04-27T21:47:08.949Z,10.00
2023-04-27T21:49:37.117Z,10.00
2023-04-27T21:52:05.452Z,10.00
2023-04-27T21:54:33.577Z,9.90
2023-04-27T21:57:02.267Z,9.90
2023-04-27T21:59:30.505Z,9.90
2023-04-27T22:01:59.361Z,9.90
